Time;durP1;ratioP1;P1;durP2;ratioP2;P2;SDS_P1;SDS_P2;PMS_P1;PMS_P2;Temp;Humidity;BMP_temperature;BMP_pressure;BME280_temperature;BME280_humidity;BME280_pressure;Samples;Min_cycle;Max_cycle;Signal;HPM_P1;HPM_P2
2021/05/12 00:05:40;;;;;;;13.95;12.45;;;12.50;99.90;;;;;;5103222;28;20043;-85
2021/05/12 00:08:06;;;;;;;16.05;12.38;;;12.50;99.90;;;;;;5089085;28;20048;-84
2021/05/12 00:10:51;;;;;;;14.50;13.00;;;12.50;99.90;;;;;;5077378;28;20076;-85
2021/05/12 00:13:17;;;;;;;18.05;15.05;;;12.40;99.90;;;;;;5068550;28;20131;-84
2021/05/12 00:15:47;;;;;;;15.43;13.55;;;12.40;99.90;;;;;;5105957;28;20523;-86
2021/05/12 00:18:22;;;;;;;16.40;14.70;;;12.30;99.90;;;;;;5074963;28;20127;-84
2021/05/12 00:20:57;;;;;;;18.45;14.77;;;12.30;99.90;;;;;;5091292;28;20028;-84
2021/05/12 00:23:43;;;;;;;16.63;14.50;;;12.30;99.90;;;;;;5073662;28;20028;-83
2021/05/12 00:29:21;;;;;;;16.27;14.53;;;12.20;99.90;;;;;;5100324;28;20050;-83
2021/05/12 00:31:50;;;;;;;15.75;14.00;;;12.20;99.90;;;;;;5093430;28;20274;-85
2021/05/12 00:34:39;;;;;;;14.30;12.75;;;12.20;99.90;;;;;;5091463;28;20174;-84
2021/05/12 00:39:56;;;;;;;13.45;12.05;;;12.10;99.90;;;;;;5095891;28;20408;-86
2021/05/12 00:42:40;;;;;;;13.18;11.77;;;12.10;99.90;;;;;;5112886;28;20089;-83
2021/05/12 00:45:10;;;;;;;12.63;10.65;;;12.00;99.90;;;;;;5097322;28;20122;-83
2021/05/12 00:48:14;;;;;;;13.43;11.07;;;12.10;99.90;;;;;;5097292;28;20066;-84
2021/05/12 00:50:58;;;;;;;13.50;11.18;;;12.00;99.90;;;;;;5093604;28;20050;-84
2021/05/12 00:53:24;;;;;;;14.52;13.02;;;12.00;99.90;;;;;;5086335;28;20048;-83
2021/05/12 00:55:50;;;;;;;16.58;14.10;;;12.00;99.90;;;;;;5086256;28;20039;-83
2021/05/12 00:58:34;;;;;;;16.27;14.52;;;11.90;99.90;;;;;;5103404;28;20501;-83
2021/05/12 01:01:00;;;;;;;16.98;13.35;;;11.90;99.90;;;;;;5111918;28;20514;-83
2021/05/12 01:04:03;;;;;;;14.82;13.20;;;11.80;99.90;;;;;;5096910;28;20031;-84
2021/05/12 01:06:56;;;;;;;16.77;14.67;;;11.80;99.90;;;;;;5097137;28;20032;-83
2021/05/12 01:09:41;;;;;;;15.15;12.80;;;11.80;99.90;;;;;;5096368;28;20281;-84
2021/05/12 01:15:31;;;;;;;12.70;10.85;;;11.70;99.90;;;;;;5113778;28;20150;-82
2021/05/12 01:21:21;;;;;;;13.10;10.60;;;11.60;99.90;;;;;;5114950;28;20062;-83
2021/05/12 01:23:55;;;;;;;12.45;9.38;;;11.60;99.90;;;;;;5114749;28;20495;-84
2021/05/12 01:26:30;;;;;;;11.10;9.30;;;11.60;99.90;;;;;;5096710;28;20027;-83
2021/05/12 01:29:00;;;;;;;13.32;9.75;;;11.60;99.90;;;;;;5114601;28;20031;-83
2021/05/12 01:31:55;;;;;;;12.30;9.55;;;11.50;99.90;;;;;;5114210;28;20408;-84
2021/05/12 01:34:29;;;;;;;12.82;9.75;;;11.50;99.90;;;;;;5115125;28;20059;-85
2021/05/12 01:36:59;;;;;;;13.57;10.55;;;11.50;99.90;;;;;;5097384;28;20066;-84
2021/05/12 01:39:28;;;;;;;12.82;10.35;;;11.40;99.90;;;;;;5093274;28;20047;-85
2021/05/12 01:42:00;;;;;;;12.55;9.55;;;11.40;99.90;;;;;;5096600;28;20032;-84
2021/05/12 01:44:29;;;;;;;14.20;11.15;;;11.40;99.90;;;;;;5096612;28;20027;-85
2021/05/12 01:47:01;;;;;;;14.07;10.45;;;11.30;99.90;;;;;;5114900;28;20039;-84
2021/05/12 01:49:48;;;;;;;15.18;11.52;;;11.30;99.90;;;;;;5096244;28;20031;-84
2021/05/12 01:52:19;;;;;;;14.40;11.73;;;11.30;99.90;;;;;;5114139;28;20132;-84
2021/05/12 01:54:45;;;;;;;16.23;11.90;;;11.20;99.90;;;;;;5094250;28;20052;-84
2021/05/12 02:00:14;;;;;;;16.52;12.40;;;11.10;99.90;;;;;;5113574;28;20522;-84
2021/05/12 02:11:14;;;;;;;12.48;9.68;;;11.10;99.90;;;;;;5114328;28;20051;-84
2021/05/12 02:13:58;;;;;;;16.95;11.15;;;11.10;99.90;;;;;;5096120;28;20433;-84
2021/05/12 02:16:43;;;;;;;14.82;11.43;;;11.10;99.90;;;;;;5097972;28;20484;-84
2021/05/12 02:19:28;;;;;;;14.00;10.18;;;11.10;99.90;;;;;;5095749;28;20036;-84
2021/05/12 02:21:54;;;;;;;11.80;9.07;;;11.10;99.90;;;;;;5113840;28;20046;-84
2021/05/12 02:24:38;;;;;;;13.65;10.52;;;11.20;99.90;;;;;;5095748;28;20035;-84
2021/05/12 02:27:04;;;;;;;15.38;10.07;;;11.20;99.90;;;;;;5096104;28;20032;-84
2021/05/12 02:32:36;;;;;;;13.27;10.50;;;11.30;99.90;;;;;;5113907;28;20039;-85
2021/05/12 02:35:27;;;;;;;13.27;9.98;;;11.20;99.90;;;;;;5095521;28;20499;-84
2021/05/12 02:38:35;;;;;;;11.07;8.82;;;11.30;99.90;;;;;;5113869;28;20036;-84
2021/05/12 02:41:04;;;;;;;20.10;13.27;;;11.30;99.90;;;;;;5095222;28;20054;-84
2021/05/12 02:43:39;;;;;;;15.73;11.75;;;11.30;99.90;;;;;;5095809;28;20032;-85
2021/05/12 02:46:08;;;;;;;18.25;13.57;;;11.30;99.90;;;;;;5095705;28;20036;-85
2021/05/12 02:48:40;;;;;;;20.10;14.65;;;11.30;99.90;;;;;;5095667;28;20061;-84
2021/05/12 02:51:12;;;;;;;20.08;14.45;;;11.30;99.90;;;;;;5096279;28;20039;-84
2021/05/12 02:53:59;;;;;;;19.38;13.65;;;11.30;99.90;;;;;;5099493;28;20472;-84
2021/05/12 02:59:37;;;;;;;19.55;14.15;;;11.30;99.90;;;;;;5117869;28;20478;-85
2021/05/12 03:02:09;;;;;;;18.20;14.00;;;11.30;99.90;;;;;;5117860;28;20120;-84
2021/05/12 03:04:39;;;;;;;17.67;13.90;;;11.20;99.90;;;;;;5099618;28;20073;-85
2021/05/12 03:07:12;;;;;;;16.38;13.07;;;11.20;99.90;;;;;;5099554;28;20464;-83
2021/05/12 03:12:38;;;;;;;16.10;12.77;;;11.10;99.90;;;;;;5117495;28;20039;-84
2021/05/12 03:18:15;;;;;;;18.30;12.60;;;11.00;99.90;;;;;;5117414;28;20042;-85
2021/05/12 03:20:47;;;;;;;14.57;11.70;;;10.90;99.90;;;;;;5098985;28;20041;-84
2021/05/12 03:23:32;;;;;;;17.38;12.10;;;10.90;99.90;;;;;;5099623;28;20349;-84
2021/05/12 03:26:12;;;;;;;15.52;11.60;;;10.90;99.90;;;;;;5098645;28;20039;-84
2021/05/12 03:28:44;;;;;;;14.90;11.82;;;10.90;99.90;;;;;;5098359;28;20032;-84
2021/05/12 03:31:29;;;;;;;16.67;12.40;;;10.90;99.90;;;;;;5099008;28;20084;-85
2021/05/12 03:33:58;;;;;;;18.65;13.20;;;10.80;99.90;;;;;;5116799;28;20035;-84
2021/05/12 03:42:01;;;;;;;16.50;13.15;;;10.70;99.90;;;;;;5116962;28;20078;-84
2021/05/12 03:44:32;;;;;;;14.63;11.25;;;10.70;99.90;;;;;;5098610;28;20030;-84
2021/05/12 03:53:02;;;;;;;16.70;13.30;;;10.60;99.90;;;;;;5117057;28;20042;-85
2021/05/12 03:55:31;;;;;;;16.70;13.25;;;10.50;99.90;;;;;;5098467;28;20047;-85
2021/05/12 03:57:57;;;;;;;21.65;14.52;;;10.50;99.90;;;;;;5098793;28;20092;-85
2021/05/12 04:00:27;;;;;;;17.85;14.55;;;10.50;99.90;;;;;;5098123;28;20036;-84
2021/05/12 04:02:59;;;;;;;19.65;14.60;;;10.50;99.90;;;;;;5097065;28;20028;-85
2021/05/12 04:08:39;;;;;;;17.48;13.07;;;10.50;99.90;;;;;;5116299;28;20042;-84
2021/05/12 04:14:44;;;;;;;16.30;13.70;;;10.50;99.90;;;;;;5116404;28;20043;-85
2021/05/12 04:17:31;;;;;;;15.50;12.23;;;10.50;99.90;;;;;;5098108;28;20032;-84
2021/05/12 04:20:16;;;;;;;17.75;11.18;;;10.60;99.90;;;;;;5098043;28;20039;-84
2021/05/12 04:22:57;;;;;;;14.63;11.27;;;10.60;99.90;;;;;;5098302;28;20038;-85
2021/05/12 04:25:54;;;;;;;14.70;10.80;;;10.70;99.90;;;;;;5112375;28;20115;-85
2021/05/12 04:28:42;;;;;;;15.30;11.15;;;10.70;99.90;;;;;;5116629;28;20110;-85
2021/05/12 04:34:07;;;;;;;15.45;11.48;;;10.60;99.90;;;;;;5116318;28;20070;-85
2021/05/12 04:36:40;;;;;;;14.48;10.15;;;10.60;99.90;;;;;;5097850;28;20023;-85
2021/05/12 04:39:50;;;;;;;14.65;10.50;;;10.60;99.90;;;;;;5097634;28;20056;-84
2021/05/12 04:45:43;;;;;;;12.00;8.60;;;10.50;99.90;;;;;;5116048;28;20035;-84
2021/05/12 04:50:59;;;;;;;13.13;9.68;;;10.50;99.90;;;;;;5115742;28;20494;-84
2021/05/12 04:53:34;;;;;;;13.15;9.43;;;10.50;99.90;;;;;;5097263;28;20135;-84
2021/05/12 04:56:03;;;;;;;12.27;8.90;;;10.40;99.90;;;;;;5097513;28;20474;-84
2021/05/12 04:58:52;;;;;;;13.95;10.63;;;10.50;99.90;;;;;;5097404;28;20085;-84
2021/05/12 05:01:37;;;;;;;13.93;10.45;;;10.50;99.90;;;;;;5097404;28;20032;-84
2021/05/12 05:07:08;;;;;;;12.75;9.63;;;10.50;99.90;;;;;;5114724;28;20127;-84
2021/05/12 05:15:25;;;;;;;11.98;8.75;;;10.70;99.90;;;;;;5112577;28;20291;-85
2021/05/12 05:17:52;;;;;;;14.10;10.05;;;10.80;99.90;;;;;;5089683;28;20050;-85
2021/05/12 05:23:06;;;;;;;18.25;11.02;;;11.00;99.90;;;;;;5113133;28;20043;-86
2021/05/12 05:26:09;;;;;;;17.77;13.68;;;11.10;99.90;;;;;;5077327;28;20047;-85
2021/05/12 05:28:36;;;;;;;19.33;13.80;;;11.10;99.90;;;;;;5074822;28;20032;-86
2021/05/12 05:31:03;;;;;;;17.83;14.05;;;11.10;99.90;;;;;;5074331;28;20454;-85
2021/05/12 05:33:29;;;;;;;18.80;12.90;;;11.10;99.90;;;;;;5074532;28;20039;-84
2021/05/12 05:35:59;;;;;;;18.63;15.02;;;11.20;99.90;;;;;;5080486;28;20434;-85
2021/05/12 05:41:14;;;;;;;19.13;15.30;;;11.30;99.90;;;;;;5093724;28;20100;-84
2021/05/12 05:43:40;;;;;;;21.55;16.65;;;11.30;99.90;;;;;;5093230;28;20028;-85
2021/05/12 05:46:07;;;;;;;21.10;16.80;;;11.40;99.90;;;;;;5077145;28;20032;-84
2021/05/12 05:48:52;;;;;;;21.13;16.52;;;11.50;99.90;;;;;;5092938;28;20123;-85
2021/05/12 05:54:02;;;;;;;23.45;18.60;;;11.60;99.90;;;;;;5103758;28;20117;-84
2021/05/12 05:59:33;;;;;;;23.15;18.65;;;11.70;99.90;;;;;;5114362;28;20046;-84
2021/05/12 06:02:00;;;;;;;24.02;17.75;;;11.80;99.90;;;;;;5097940;28;20028;-84
2021/05/12 06:04:28;;;;;;;23.75;18.30;;;11.90;99.90;;;;;;5096824;28;20061;-85
2021/05/12 06:06:55;;;;;;;24.33;18.13;;;12.00;99.90;;;;;;5097307;28;20078;-84
2021/05/12 06:09:43;;;;;;;20.25;17.05;;;12.10;99.90;;;;;;5115118;28;20043;-84
2021/05/12 06:12:12;;;;;;;25.52;19.15;;;12.10;99.90;;;;;;5115001;28;20042;-84
2021/05/12 06:23:48;;;;;;;22.10;17.60;;;12.30;99.90;;;;;;5114533;28;20043;-84
2021/05/12 06:26:33;;;;;;;20.10;15.43;;;12.30;99.90;;;;;;5096023;28;20046;-84
2021/05/12 06:29:19;;;;;;;16.20;12.73;;;12.40;99.90;;;;;;5115341;28;20036;-84
2021/05/12 06:34:31;;;;;;;20.83;15.25;;;12.50;99.90;;;;;;5114998;28;20499;-84
2021/05/12 06:45:33;;;;;;;17.00;12.25;;;12.70;99.90;;;;;;5114415;28;20070;-85
2021/05/12 06:51:21;;;;;;;16.85;11.85;;;12.90;99.90;;;;;;5114713;28;20058;-85
2021/05/12 06:53:49;;;;;;;16.75;10.88;;;12.90;99.90;;;;;;5114531;28;20054;-84
2021/05/12 06:59:24;;;;;;;13.98;10.15;;;13.00;99.90;;;;;;5114096;28;20122;-84
2021/05/12 07:01:55;;;;;;;13.00;8.65;;;13.10;99.90;;;;;;5096142;28;20032;-85
2021/05/12 07:04:42;;;;;;;17.05;9.57;;;13.10;99.90;;;;;;5114046;28;20024;-85
2021/05/12 07:09:56;;;;;;;18.10;10.75;;;13.30;99.90;;;;;;5098726;28;20237;-85
2021/05/12 07:12:49;;;;;;;15.38;8.90;;;13.30;99.90;;;;;;5095501;28;20383;-85
2021/05/12 07:15:16;;;;;;;13.40;8.48;;;13.30;99.90;;;;;;5102716;28;20055;-86
2021/05/12 07:17:42;;;;;;;13.65;9.75;;;13.40;99.90;;;;;;5107025;28;20039;-84
2021/05/12 07:29:37;;;;;;;13.20;6.45;;;13.50;99.90;;;;;;5125765;28;20054;-84
2021/05/12 07:32:27;;;;;;;12.30;5.97;;;13.60;99.90;;;;;;5109930;28;20088;-85
2021/05/12 07:35:13;;;;;;;8.77;5.40;;;13.60;99.90;;;;;;5107028;28;20047;-84
2021/05/12 07:43:35;;;;;;;13.93;6.35;;;13.80;99.90;;;;;;5137339;27;20498;-84
2021/05/12 07:46:39;;;;;;;10.82;6.35;;;13.90;99.90;;;;;;5135763;27;20035;-84
2021/05/12 07:49:44;;;;;;;13.57;7.20;;;13.90;99.90;;;;;;5118894;27;20126;-84
2021/05/12 07:52:29;;;;;;;11.93;7.15;;;13.90;99.90;;;;;;5118253;27;20035;-83
2021/05/12 07:54:59;;;;;;;9.20;4.90;;;14.00;99.90;;;;;;5118361;27;20429;-84
2021/05/12 07:57:26;;;;;;;12.10;6.28;;;14.00;99.90;;;;;;5118265;27;20043;-84
2021/05/12 08:00:11;;;;;;;8.15;5.28;;;14.10;99.90;;;;;;5118186;27;20031;-84
2021/05/12 08:08:27;;;;;;;;;;;14.30;99.90;;;;;;5135454;27;20116;-85
2021/05/12 08:11:31;;;;;;;7.35;3.85;;;14.40;99.90;;;;;;5112322;27;19922;-84
2021/05/12 08:16:52;;;;;;;7.65;3.05;;;14.60;99.90;;;;;;5116143;28;20088;-85
2021/05/12 08:22:07;;;;;;;5.72;2.47;;;14.60;99.90;;;;;;5117694;27;20525;-85
2021/05/12 08:27:18;;;;;;;4.93;2.33;;;14.70;99.90;;;;;;5115546;28;20156;-85
2021/05/12 08:36:27;;;;;;;8.95;3.05;;;14.90;99.90;;;;;;5115987;28;20506;-84
2021/05/12 08:38:53;;;;;;;8.32;2.78;;;14.90;99.90;;;;;;5113342;28;20483;-84
2021/05/12 08:41:57;;;;;;;6.13;2.40;;;15.00;99.90;;;;;;5115609;28;20063;-85
2021/05/12 08:44:23;;;;;;;7.32;2.50;;;15.10;99.90;;;;;;5097029;28;20110;-84
2021/05/12 08:46:52;;;;;;;7.40;2.80;;;15.10;99.90;;;;;;5102743;27;20023;-85
2021/05/12 08:49:20;;;;;;;7.25;2.78;;;15.20;99.90;;;;;;5103729;28;20046;-85
2021/05/12 08:52:05;;;;;;;7.57;2.60;;;15.20;99.90;;;;;;5111814;27;20083;-85
2021/05/12 08:54:31;;;;;;;6.50;2.47;;;15.30;99.90;;;;;;5112726;28;20066;-85
2021/05/12 08:56:56;;;;;;;6.93;3.05;;;15.30;99.90;;;;;;5106407;28;20451;-84
2021/05/12 09:00:00;;;;;;;11.13;3.40;;;15.40;99.90;;;;;;5102073;28;20543;-84
2021/05/12 09:02:26;;;;;;;5.33;2.47;;;15.50;99.60;;;;;;5095294;28;20024;-84
2021/05/12 09:04:52;;;;;;;7.15;2.90;;;15.60;99.80;;;;;;5113728;28;20262;-85
2021/05/12 09:10:03;;;;;;;8.65;2.95;;;15.80;99.90;;;;;;5100453;28;20103;-84
2021/05/12 09:12:48;;;;;;;6.93;2.35;;;16.00;99.50;;;;;;5110573;28;20160;-85
2021/05/12 09:15:33;;;;;;;6.60;2.80;;;16.10;99.40;;;;;;5113531;28;20028;-85
2021/05/12 09:21:13;;;;;;;8.35;3.42;;;16.20;99.30;;;;;;5113868;28;20046;-85
2021/05/12 09:23:40;;;;;;;;;;;16.30;99.20;;;;;;5079577;28;20087;-84
2021/05/12 09:26:44;;;;;;;8.02;3.60;;;16.30;99.50;;;;;;5114023;27;20382;-83
2021/05/12 09:29:28;;;;;;;8.73;4.53;;;16.50;98.60;;;;;;5131920;27;20080;-85
2021/05/12 09:32:07;;;;;;;6.45;2.80;;;16.50;98.80;;;;;;5101166;27;20024;-85
2021/05/12 09:35:03;;;;;;;9.27;2.70;;;17.30;98.60;;;;;;5107522;28;20077;-84
2021/05/12 09:43:29;;;;;;;8.57;2.08;;;20.20;94.20;;;;;;5112347;28;20027;-85
2021/05/12 09:46:34;;;;;;;9.55;2.03;;;21.10;93.00;;;;;;5111377;27;20043;-85
2021/05/12 09:51:54;;;;;;;8.30;2.60;;;22.00;90.30;;;;;;5033187;28;20191;-84
2021/05/12 09:57:25;;;;;;;7.35;1.65;;;22.60;90.80;;;;;;5117498;27;20034;-85
2021/05/12 10:00:09;;;;;;;5.97;1.55;;;23.60;90.60;;;;;;5104267;28;20040;-85
2021/05/12 10:06:03;;;;;;;5.47;1.40;;;22.90;88.50;;;;;;5128144;27;20039;-85
2021/05/12 10:08:47;;;;;;;4.82;0.80;;;22.20;88.70;;;;;;5109603;28;20032;-85
2021/05/12 10:11:13;;;;;;;6.70;1.48;;;22.20;89.00;;;;;;5112591;28;20100;-84
2021/05/12 10:13:40;;;;;;;6.35;1.20;;;22.40;89.80;;;;;;5095457;28;20031;-84
2021/05/12 10:16:25;;;;;;;6.53;1.63;;;23.10;87.60;;;;;;5111751;27;20092;-84
2021/05/12 10:19:31;;;;;;;6.13;1.60;;;23.80;85.40;;;;;;5094872;28;20154;-85
2021/05/12 10:22:02;;;;;;;5.75;1.55;;;23.60;80.40;;;;;;5112358;28;20040;-84
2021/05/12 10:24:30;;;;;;;6.03;1.73;;;23.20;83.00;;;;;;5095044;28;20034;-84
2021/05/12 10:27:15;;;;;;;8.65;1.75;;;23.30;81.50;;;;;;5103869;28;20031;-82
2021/05/12 10:29:54;;;;;;;6.18;1.48;;;22.90;81.30;;;;;;5109840;28;20440;-82
2021/05/12 10:35:38;;;;;;;7.03;1.40;;;23.60;81.50;;;;;;5114772;28;20058;-83
2021/05/12 10:38:07;;;;;;;9.85;1.85;;;24.00;81.70;;;;;;5096437;28;20507;-83
2021/05/12 10:40:42;;;;;;;8.60;1.40;;;24.70;79.90;;;;;;5080594;28;20036;-84
2021/05/12 10:52:32;;;;;;;4.63;1.70;;;24.10;78.60;;;;;;5112955;28;20449;-84
2021/05/12 10:54:58;;;;;;;8.02;1.60;;;23.50;79.80;;;;;;5112827;28;20048;-84
2021/05/12 10:58:01;;;;;;;5.20;1.38;;;22.50;77.60;;;;;;5107560;28;20049;-83
2021/05/12 11:01:13;;;;;;;4.30;1.48;;;21.70;78.80;;;;;;5093228;28;20483;-84
2021/05/12 11:10:59;;;;;;;7.93;1.50;;;21.70;81.60;;;;;;5110728;28;20070;-85
2021/05/12 11:17:07;;;;;;;4.57;1.00;;;24.60;78.50;;;;;;5123453;27;20035;-84
2021/05/12 11:19:36;;;;;;;5.32;1.25;;;25.60;76.10;;;;;;5095421;28;20122;-86
2021/05/12 11:25:39;;;;;;;6.45;1.48;;;26.20;71.70;;;;;;5118102;27;20036;-86
2021/05/12 11:28:57;;;;;;;6.95;1.00;;;26.30;71.10;;;;;;5100626;27;20036;-85
2021/05/12 11:31:38;;;;;;;4.28;1.00;;;26.40;70.20;;;;;;5121446;27;20492;-84
2021/05/12 11:34:17;;;;;;;3.55;0.90;;;26.50;69.30;;;;;;5097607;28;20084;-85
2021/05/12 11:36:44;;;;;;;3.28;0.98;;;26.80;69.00;;;;;;5109082;28;20472;-85
2021/05/12 11:41:55;;;;;;;6.45;1.27;;;27.40;67.60;;;;;;5122045;27;20108;-84
2021/05/12 11:44:21;;;;;;;4.88;1.30;;;27.30;64.60;;;;;;5110926;28;20511;-84
2021/05/12 11:47:06;;;;;;;3.72;0.95;;;26.90;66.60;;;;;;5098067;28;20120;-84
2021/05/12 11:49:38;;;;;;;4.30;1.05;;;26.90;66.90;;;;;;5098119;28;20040;-86
2021/05/12 11:52:05;;;;;;;6.00;1.30;;;26.90;65.20;;;;;;5100398;28;20093;-83
2021/05/12 11:54:52;;;;;;;3.55;1.20;;;26.70;63.80;;;;;;5097844;28;20051;-84
2021/05/12 11:57:18;;;;;;;4.55;1.33;;;26.80;64.20;;;;;;5116068;28;20032;-84
2021/05/12 11:59:48;;;;;;;3.92;0.82;;;27.00;62.30;;;;;;5101815;28;20487;-85
2021/05/12 12:02:15;;;;;;;6.85;1.45;;;27.00;63.10;;;;;;5113725;28;20020;-84
2021/05/12 12:04:58;;;;;;;8.57;1.33;;;27.20;62.40;;;;;;5097591;28;20036;-84
2021/05/12 12:10:47;;;;;;;4.32;1.08;;;26.70;60.60;;;;;;5115288;28;19949;-84
2021/05/12 12:16:26;;;;;;;8.07;1.50;;;27.00;62.60;;;;;;5122277;27;20042;-85
2021/05/12 12:19:12;;;;;;;3.65;1.02;;;27.50;62.20;;;;;;5105422;27;20046;-85
2021/05/12 12:27:10;;;;;;;5.15;1.23;;;27.90;60.60;;;;;;5115001;28;20069;-83
2021/05/12 12:32:58;;;;;;;4.90;1.20;;;27.40;61.70;;;;;;5114568;28;20501;-83
2021/05/12 12:35:25;;;;;;;5.93;1.60;;;27.30;63.20;;;;;;5096918;28;20122;-84
2021/05/12 12:38:11;;;;;;;4.43;1.17;;;26.40;63.50;;;;;;5113313;27;20042;-83
2021/05/12 12:40:45;;;;;;;6.13;1.23;;;25.50;65.10;;;;;;5113808;28;20035;-83
2021/05/12 12:43:12;;;;;;;4.45;1.38;;;25.20;66.30;;;;;;5107457;27;20038;-83
2021/05/12 12:45:43;;;;;;;5.82;1.33;;;25.40;65.30;;;;;;5101202;28;20111;-84
2021/05/12 12:48:09;;;;;;;4.28;1.20;;;26.10;65.90;;;;;;5091301;28;20042;-83
2021/05/12 12:50:55;;;;;;;3.88;1.10;;;26.70;62.90;;;;;;5093028;28;20028;-85
2021/05/12 12:56:50;;;;;;;7.05;1.75;;;27.30;60.40;;;;;;5101876;28;20046;-83
2021/05/12 12:59:21;;;;;;;5.00;1.30;;;26.80;61.20;;;;;;5097544;28;20055;-84
2021/05/12 13:01:57;;;;;;;;;;;;;;;;;;;;;
2021/05/12 13:04:27;;;;;;;5.18;1.30;;;27.10;61.40;;;;;;5100886;28;20020;-84
2021/05/12 13:07:06;;;;;;;4.18;1.30;;;26.90;63.10;;;;;;5098551;28;20127;-83
2021/05/12 13:12:22;;;;;;;5.30;1.50;;;27.30;60.00;;;;;;5083399;28;20088;-85
2021/05/12 13:17:35;;;;;;;4.93;1.23;;;27.80;61.90;;;;;;5105354;28;20039;-85
2021/05/12 13:23:18;;;;;;;4.80;1.00;;;27.60;60.50;;;;;;5101677;28;20115;-85
2021/05/12 13:25:48;;;;;;;5.53;1.50;;;27.00;62.00;;;;;;5075695;28;20032;-84
2021/05/12 13:28:36;;;;;;;4.45;1.10;;;25.90;62.30;;;;;;5101483;28;20667;-84
2021/05/12 13:31:03;;;;;;;5.70;1.17;;;25.70;61.70;;;;;;5085295;28;20590;-84
2021/05/12 13:33:31;;;;;;;6.28;1.40;;;25.50;60.80;;;;;;5078070;28;20043;-83
2021/05/12 13:36:19;;;;;;;5.80;1.95;;;25.20;60.80;;;;;;5077949;28;20047;-83
2021/05/12 13:39:05;;;;;;;4.82;1.38;;;25.70;60.50;;;;;;5082859;28;20131;-83
2021/05/12 13:41:36;;;;;;;5.00;2.22;;;26.40;62.00;;;;;;5097808;28;20028;-84
2021/05/12 13:44:39;;;;;;;6.35;1.80;;;26.60;62.60;;;;;;5081640;28;20582;-83
2021/05/12 13:47:24;;;;;;;4.68;1.48;;;26.90;60.00;;;;;;5073486;28;20099;-84
2021/05/12 13:50:12;;;;;;;7.05;1.52;;;27.00;59.40;;;;;;5073838;28;20511;-83
2021/05/12 14:04:50;;;;;;;4.45;1.30;;;25.50;58.60;;;;;;5108961;28;20038;-85
2021/05/12 14:07:16;;;;;;;4.80;1.20;;;25.30;59.50;;;;;;5089288;28;20028;-82
2021/05/12 14:12:52;;;;;;;4.22;1.38;;;25.10;61.80;;;;;;5108630;28;20050;-83
2021/05/12 14:18:21;;;;;;;4.93;1.17;;;25.20;62.10;;;;;;5107652;28;20447;-83
2021/05/12 14:23:53;;;;;;;3.72;1.25;;;25.10;62.40;;;;;;5119326;27;20156;-82
2021/05/12 14:26:19;;;;;;;4.63;1.42;;;25.10;63.40;;;;;;5090211;28;20118;-83
2021/05/12 14:29:06;;;;;;;4.32;1.35;;;24.90;63.80;;;;;;5095082;28;20036;-83
2021/05/12 14:31:51;;;;;;;4.05;1.17;;;24.80;64.90;;;;;;5096045;28;20081;-82
2021/05/12 14:34:18;;;;;;;4.60;1.00;;;24.50;64.20;;;;;;5089959;28;20067;-83
2021/05/12 14:37:03;;;;;;;5.63;1.33;;;24.50;63.80;;;;;;5094789;28;20027;-83
2021/05/12 14:39:35;;;;;;;5.68;1.25;;;24.50;63.70;;;;;;5106698;28;20071;-83
2021/05/12 14:51:18;;;;;;;3.97;1.13;;;24.30;63.90;;;;;;5111106;28;20050;-82
2021/05/12 14:53:49;;;;;;;4.72;1.20;;;24.20;65.40;;;;;;5098320;28;20130;-84
2021/05/12 14:56:44;;;;;;;6.95;1.42;;;24.10;63.90;;;;;;5077362;28;20047;-85
2021/05/12 15:07:26;;;;;;;4.65;1.10;;;23.90;65.00;;;;;;5105349;28;20080;-85
2021/05/12 15:13:17;;;;;;;6.05;1.90;;;24.40;63.30;;;;;;5116833;27;20398;-85
2021/05/12 15:18:52;;;;;;;4.15;1.50;;;24.10;63.50;;;;;;5123779;27;20112;-85
2021/05/12 15:21:18;;;;;;;3.47;1.40;;;23.90;64.60;;;;;;5074049;28;20522;-85
2021/05/12 15:24:05;;;;;;;4.07;1.30;;;24.00;64.50;;;;;;5085440;27;20047;-86
2021/05/12 15:29:39;;;;;;;3.47;1.13;;;24.30;64.50;;;;;;5107105;27;20104;-85
2021/05/12 15:32:06;;;;;;;5.35;1.45;;;24.40;62.60;;;;;;5102369;28;20039;-85
2021/05/12 15:34:32;;;;;;;4.85;1.23;;;24.30;61.80;;;;;;5107130;28;20039;-85
2021/05/12 15:36:58;;;;;;;3.67;0.90;;;24.50;62.10;;;;;;5091601;28;20045;-86
2021/05/12 15:39:24;;;;;;;2.45;0.80;;;24.50;62.90;;;;;;5099969;27;20039;-86
2021/05/12 15:41:51;;;;;;;2.22;0.80;;;24.60;62.40;;;;;;5100601;28;20043;-85
2021/05/12 15:44:36;;;;;;;2.33;0.60;;;24.80;61.90;;;;;;5105751;27;20097;-86
2021/05/12 15:52:35;;;;;;;4.47;0.98;;;23.50;63.30;;;;;;5126577;27;20763;-84
2021/05/12 15:55:05;;;;;;;5.53;1.05;;;23.10;63.90;;;;;;5080409;28;20091;-86
2021/05/12 16:00:17;;;;;;;4.60;1.02;;;22.40;67.30;;;;;;5094601;28;20031;-85
2021/05/12 16:02:45;;;;;;;4.82;0.98;;;22.10;68.50;;;;;;5086945;28;20043;-85
2021/05/12 16:08:35;;;;;;;1.85;0.77;;;21.80;69.60;;;;;;5094118;28;20039;-84
2021/05/12 16:17:10;;;;;;;3.55;0.93;;;21.20;72.20;;;;;;5099003;28;20031;-84
2021/05/12 16:19:38;;;;;;;4.97;1.65;;;20.90;72.70;;;;;;5080260;28;20047;-84
2021/05/12 16:24:53;;;;;;;4.30;1.05;;;20.60;72.70;;;;;;5098892;28;20112;-85
2021/05/12 16:27:39;;;;;;;5.40;1.33;;;20.60;73.50;;;;;;5098678;28;20032;-85
2021/05/12 16:30:26;;;;;;;6.97;1.15;;;20.40;72.60;;;;;;5100083;28;20124;-85
2021/05/12 16:32:53;;;;;;;4.88;1.15;;;20.30;74.10;;;;;;5080947;28;20467;-84
2021/05/12 16:35:19;;;;;;;3.80;1.35;;;20.20;74.50;;;;;;5078049;28;20106;-85
2021/05/12 16:38:26;;;;;;;5.00;1.15;;;20.00;75.80;;;;;;5099630;28;20073;-85
2021/05/12 16:40:56;;;;;;;4.15;1.35;;;19.90;75.00;;;;;;5103915;28;20813;-84
2021/05/12 16:43:24;;;;;;;4.30;1.15;;;19.80;77.00;;;;;;5048566;28;20055;-84
2021/05/12 16:45:50;;;;;;;3.85;0.93;;;19.70;77.20;;;;;;5075526;28;20032;-85
2021/05/12 16:48:18;;;;;;;8.02;1.60;;;19.80;78.20;;;;;;5099553;28;20208;-84
2021/05/12 16:54:07;;;;;;;4.93;1.70;;;19.50;79.60;;;;;;5085811;28;20061;-84
2021/05/12 16:59:37;;;;;;;5.80;1.73;;;19.00;83.70;;;;;;5095112;28;20037;-83
2021/05/12 17:02:09;;;;;;;4.80;1.77;;;18.80;85.30;;;;;;5083395;28;20501;-84
2021/05/12 17:07:20;;;;;;;8.07;2.25;;;18.00;89.50;;;;;;5096953;28;20408;-83
2021/05/12 17:09:47;;;;;;;6.93;2.42;;;17.60;90.50;;;;;;5079018;28;20039;-83
2021/05/12 17:12:22;;;;;;;6.80;1.80;;;17.30;91.40;;;;;;5062538;28;20123;-83
2021/05/12 17:15:12;;;;;;;3.70;1.40;;;17.20;91.80;;;;;;5080979;28;20043;-83
2021/05/12 17:17:42;;;;;;;3.85;1.55;;;17.30;92.10;;;;;;5062918;28;20105;-83
2021/05/12 17:20:29;;;;;;;5.25;1.65;;;17.30;92.10;;;;;;5080325;28;20063;-85
2021/05/12 17:23:19;;;;;;;5.63;1.90;;;17.30;92.00;;;;;;5079052;28;20085;-84
2021/05/12 17:25:47;;;;;;;4.78;1.55;;;17.40;91.80;;;;;;5080004;28;20038;-84
2021/05/12 17:31:24;;;;;;;6.70;2.00;;;17.30;91.80;;;;;;5097679;28;20371;-83
2021/05/12 17:36:57;;;;;;;6.28;2.05;;;17.30;92.00;;;;;;5097184;28;20582;-84
2021/05/12 17:39:48;;;;;;;5.05;1.40;;;17.30;91.80;;;;;;5097826;28;20048;-84
2021/05/12 17:42:15;;;;;;;4.90;1.55;;;17.30;91.90;;;;;;5097946;28;20079;-84
2021/05/12 17:44:51;;;;;;;5.78;1.73;;;17.20;91.70;;;;;;5065351;28;20043;-85
2021/05/12 17:47:20;;;;;;;5.95;1.70;;;17.20;91.60;;;;;;5081852;28;20159;-83
2021/05/12 17:50:11;;;;;;;8.00;2.10;;;17.00;91.50;;;;;;5080360;28;20387;-84
2021/05/12 17:56:02;;;;;;;5.97;1.77;;;17.00;91.60;;;;;;5110078;27;20063;-84
2021/05/12 17:58:51;;;;;;;8.57;1.70;;;17.00;91.60;;;;;;5105290;28;20071;-84
2021/05/12 18:01:20;;;;;;;5.35;1.40;;;16.90;91.70;;;;;;5089824;28;20108;-83
2021/05/12 18:06:36;;;;;;;5.13;1.90;;;16.80;91.40;;;;;;5106892;28;20117;-82
2021/05/12 18:09:22;;;;;;;7.68;1.80;;;16.70;91.50;;;;;;5102243;28;20036;-84
2021/05/12 18:17:30;;;;;;;3.83;1.10;;;16.40;91.60;;;;;;5107307;28;20054;-85
2021/05/12 18:19:56;;;;;;;4.90;1.58;;;16.30;91.90;;;;;;5095977;28;20044;-83
2021/05/12 18:22:41;;;;;;;5.70;1.48;;;16.30;92.10;;;;;;5104285;28;20096;-85
2021/05/12 18:25:31;;;;;;;4.80;1.15;;;16.40;92.10;;;;;;5071827;28;20154;-83
2021/05/12 18:31:03;;;;;;;6.75;1.50;;;16.30;92.10;;;;;;5107240;28;20043;-83
2021/05/12 18:33:33;;;;;;;6.32;1.58;;;16.20;92.00;;;;;;5100142;28;20042;-82
2021/05/12 18:36:50;;;;;;;2.78;0.80;;;16.10;92.20;;;;;;5100753;28;20096;-84
2021/05/12 18:39:45;;;;;;;4.05;1.08;;;16.10;92.30;;;;;;5087295;28;20140;-84
2021/05/12 18:42:32;;;;;;;2.97;1.00;;;16.10;92.20;;;;;;5088053;28;20104;-84
2021/05/12 18:48:21;;;;;;;4.30;1.10;;;16.20;92.20;;;;;;5112509;28;20171;-84
2021/05/12 18:51:07;;;;;;;4.30;1.15;;;16.20;92.30;;;;;;5112074;28;20031;-84
2021/05/12 18:53:53;;;;;;;3.42;1.20;;;16.20;92.20;;;;;;5091213;28;20574;-84
2021/05/12 18:56:39;;;;;;;4.22;1.20;;;16.10;92.20;;;;;;5096854;28;20387;-84
2021/05/12 18:59:27;;;;;;;3.90;1.20;;;16.00;92.30;;;;;;5096420;28;20060;-84